ウィニペグ の空港の天気 - METARとTAF

ウィニペグ国際空港 ( CYWG / YWG ) - カナダ マニトバ州ウィニペグ
飛行場実況気象(Metar)
観測時間05/28 05:24 CDT (05/28 10:24 UTC)
風向・風速東 8m/s 瞬間風速11m/s
視程10km以上
天気現象弱い雨
全天を覆う雲 雲底高度 2650m
気温14℃
湿度77%
気圧1003.6hPa
METARCYWG 281024Z 09015G21KT 15SM -RA OVC087 14/10 A2963 RMK AC8 SLP036 DENSITY ALT 1300FT
過去の天気等 Google飛行場航空写真 Wunderground天気予報

過去48時間のMETAR

飛行場予報(TAF)
発表時間: 5/28 00:40 CDT (5/28 05:40 UTC)
予報対象時間: 28日1時 CDT ~ 29日1時 CDT
風向・風速東 6m/s
視程10km以上
天気現象弱い雨
全天の4割程度の雲 雲底高度 1830m
全天の8割程度の雲 雲底高度 2740m
28日1時 CDT ~ 28日5時 CDT に一時的に
視程10km以上
天気現象弱いしゅう雨 もや
全天を覆う雲 雲底高度 1520m
28日5時 CDT から
風向・風速東 8m/s
視程10km以上
全天の4割程度の雲 雲底高度 1520m
全天の8割程度の雲 雲底高度 2440m
28日8時 CDT ~ 28日10時 CDT に徐々に
風向・風速南 8m/s
28日12時 CDT から
風向・風速南東 8m/s
視程10km以上
全天の8割程度の雲 雲底高度 1520m
28日12時 CDT ~ 28日16時 CDT に一時的に
視程10km以上
天気現象弱いしゅう雨
全天を覆う雲 雲底高度 1220m
28日16時 CDT から
風向・風速西 8m/s
視程10km以上
天気現象弱いしゅう雨 周辺で雷
全天の8割程度の積乱雲 雲底高度 1520m
28日17時 CDT ~ 28日19時 CDT に徐々に
風向・風速西北西 8m/s
28日21時 CDT から
風向・風速西北西 5m/s
視程10km以上
全天の4割程度の雲 雲底高度 3050m
28日21時 CDT ~ 29日1時 CDT に一時的に
全天の8割程度の雲 雲底高度 3050m
TAF CYWG 280540Z 2806/2906 08012KT P6SM -RA SCT060 BKN090
TEMPO 2806/2810 6SM -SHRA BR OVC050
FM281000 09015KT P6SM SCT050 BKN080
BECMG 2813/2815 17015KT
FM281700 14015KT P6SM BKN050
TEMPO 2817/2821 P6SM -SHRA OVC040
FM282100 26015KT P6SM -SHRA VCTS BKN050CB
BECMG 2822/2824 30015KT
FM290200 30010KT P6SM SCT100
TEMPO 2902/2906 BKN100 RMK NXT FCST BY 281200Z